sensor_id;sensor_type;location;lat;lon;timestamp;temperature;humidity
40996;DHT22;26723;57.478;12.066;2022-11-15T00:02:07;9.10;99.90
40996;DHT22;26723;57.478;12.066;2022-11-15T00:05:36;9.10;99.90
40996;DHT22;26723;57.478;12.066;2022-11-15T00:09:03;9.10;99.90
40996;DHT22;26723;57.478;12.066;2022-11-15T00:12:30;9.10;99.90
40996;DHT22;26723;57.478;12.066;2022-11-15T00:15:57;9.00;99.90
40996;DHT22;26723;57.478;12.066;2022-11-15T00:19:24;9.00;99.90
40996;DHT22;26723;57.478;12.066;2022-11-15T00:22:52;9.00;99.90
40996;DHT22;26723;57.478;12.066;2022-11-15T00:26:19;9.00;99.90
40996;DHT22;26723;57.478;12.066;2022-11-15T00:29:46;9.00;99.90
40996;DHT22;26723;57.478;12.066;2022-11-15T00:33:13;9.00;99.90
40996;DHT22;26723;57.478;12.066;2022-11-15T00:36:40;9.00;99.90
40996;DHT22;26723;57.478;12.066;2022-11-15T00:40:09;9.00;99.90
40996;DHT22;26723;57.478;12.066;2022-11-15T00:43:38;9.00;99.90
40996;DHT22;26723;57.478;12.066;2022-11-15T00:47:05;8.90;99.90
40996;DHT22;26723;57.478;12.066;2022-11-15T00:50:32;9.00;99.90
40996;DHT22;26723;57.478;12.066;2022-11-15T00:54:01;9.00;99.90
40996;DHT22;26723;57.478;12.066;2022-11-15T00:57:29;9.00;99.90
40996;DHT22;26723;57.478;12.066;2022-11-15T01:00:56;9.00;99.90
40996;DHT22;26723;57.478;12.066;2022-11-15T01:04:23;9.00;99.90
40996;DHT22;26723;57.478;12.066;2022-11-15T01:07:51;9.00;99.90
40996;DHT22;26723;57.478;12.066;2022-11-15T01:11:18;9.00;99.90
40996;DHT22;26723;57.478;12.066;2022-11-15T01:14:46;9.00;99.90
40996;DHT22;26723;57.478;12.066;2022-11-15T01:18:13;9.00;99.90
40996;DHT22;26723;57.478;12.066;2022-11-15T01:21:40;9.00;99.90
40996;DHT22;26723;57.478;12.066;2022-11-15T01:25:06;9.00;99.90
40996;DHT22;26723;57.478;12.066;2022-11-15T01:28:34;8.90;99.90
40996;DHT22;26723;57.478;12.066;2022-11-15T01:32:03;8.90;99.90
40996;DHT22;26723;57.478;12.066;2022-11-15T01:35:30;9.00;99.90
40996;DHT22;26723;57.478;12.066;2022-11-15T01:38:58;9.00;99.90
40996;DHT22;26723;57.478;12.066;2022-11-15T01:42:25;9.00;99.90
40996;DHT22;26723;57.478;12.066;2022-11-15T01:45:56;8.90;99.90
40996;DHT22;26723;57.478;12.066;2022-11-15T01:49:27;8.90;99.90
40996;DHT22;26723;57.478;12.066;2022-11-15T01:52:56;8.90;99.90
40996;DHT22;26723;57.478;12.066;2022-11-15T01:56:26;8.90;99.90
40996;DHT22;26723;57.478;12.066;2022-11-15T01:59:54;8.90;99.90
40996;DHT22;26723;57.478;12.066;2022-11-15T02:03:25;8.90;99.90
40996;DHT22;26723;57.478;12.066;2022-11-15T02:06:55;8.90;99.90
40996;DHT22;26723;57.478;12.066;2022-11-15T02:10:24;8.90;99.90
40996;DHT22;26723;57.478;12.066;2022-11-15T02:13:51;8.90;99.90
40996;DHT22;26723;57.478;12.066;2022-11-15T02:17:33;8.90;99.90
40996;DHT22;26723;57.478;12.066;2022-11-15T02:21:15;8.90;99.90
40996;DHT22;26723;57.478;12.066;2022-11-15T02:25:01;8.90;99.90
40996;DHT22;26723;57.478;12.066;2022-11-15T02:28:51;8.90;99.90
40996;DHT22;26723;57.478;12.066;2022-11-15T02:32:27;8.90;99.90
40996;DHT22;26723;57.478;12.066;2022-11-15T02:36:00;8.90;99.90
40996;DHT22;26723;57.478;12.066;2022-11-15T02:39:33;8.90;99.90
40996;DHT22;26723;57.478;12.066;2022-11-15T02:43:08;8.90;99.90
40996;DHT22;26723;57.478;12.066;2022-11-15T02:46:56;8.90;99.90
40996;DHT22;26723;57.478;12.066;2022-11-15T02:50:41;8.90;99.90
40996;DHT22;26723;57.478;12.066;2022-11-15T02:54:12;8.90;99.90
40996;DHT22;26723;57.478;12.066;2022-11-15T02:57:44;8.90;99.90
40996;DHT22;26723;57.478;12.066;2022-11-15T03:01:16;8.90;99.90
40996;DHT22;26723;57.478;12.066;2022-11-15T03:04:53;8.80;99.90
40996;DHT22;26723;57.478;12.066;2022-11-15T03:08:29;8.80;99.90
40996;DHT22;26723;57.478;12.066;2022-11-15T03:12:01;8.80;99.90
40996;DHT22;26723;57.478;12.066;2022-11-15T03:15:34;8.80;99.90
40996;DHT22;26723;57.478;12.066;2022-11-15T03:19:06;8.80;99.90
40996;DHT22;26723;57.478;12.066;2022-11-15T03:22:37;8.80;99.90
40996;DHT22;26723;57.478;12.066;2022-11-15T03:26:10;8.80;99.90
40996;DHT22;26723;57.478;12.066;2022-11-15T03:29:41;8.80;99.90
40996;DHT22;26723;57.478;12.066;2022-11-15T03:33:09;8.80;99.90
40996;DHT22;26723;57.478;12.066;2022-11-15T03:36:37;8.80;99.90
40996;DHT22;26723;57.478;12.066;2022-11-15T03:40:06;8.80;99.90
40996;DHT22;26723;57.478;12.066;2022-11-15T03:43:41;8.80;99.90
40996;DHT22;26723;57.478;12.066;2022-11-15T03:47:13;8.80;99.90
40996;DHT22;26723;57.478;12.066;2022-11-15T03:50:43;8.80;99.90
40996;DHT22;26723;57.478;12.066;2022-11-15T03:54:12;8.80;99.90
40996;DHT22;26723;57.478;12.066;2022-11-15T03:57:39;8.70;99.90
40996;DHT22;26723;57.478;12.066;2022-11-15T04:01:07;8.70;99.90
40996;DHT22;26723;57.478;12.066;2022-11-15T04:04:34;8.70;99.90
40996;DHT22;26723;57.478;12.066;2022-11-15T04:08:01;8.70;99.90
40996;DHT22;26723;57.478;12.066;2022-11-15T04:11:28;8.70;99.90
40996;DHT22;26723;57.478;12.066;2022-11-15T04:14:55;8.70;99.90
40996;DHT22;26723;57.478;12.066;2022-11-15T04:18:34;8.70;99.90
40996;DHT22;26723;57.478;12.066;2022-11-15T04:22:01;8.70;99.90
40996;DHT22;26723;57.478;12.066;2022-11-15T04:25:45;8.70;99.90
40996;DHT22;26723;57.478;12.066;2022-11-15T04:29:14;8.70;99.90
40996;DHT22;26723;57.478;12.066;2022-11-15T04:32:59;8.70;99.90
40996;DHT22;26723;57.478;12.066;2022-11-15T04:36:27;8.70;99.90
40996;DHT22;26723;57.478;12.066;2022-11-15T04:40:11;8.70;99.90
40996;DHT22;26723;57.478;12.066;2022-11-15T04:43:38;8.70;99.90
40996;DHT22;26723;57.478;12.066;2022-11-15T04:47:05;8.70;99.90
40996;DHT22;26723;57.478;12.066;2022-11-15T04:50:31;8.80;99.90
40996;DHT22;26723;57.478;12.066;2022-11-15T04:53:59;8.70;99.90
40996;DHT22;26723;57.478;12.066;2022-11-15T04:57:26;8.70;99.90
40996;DHT22;26723;57.478;12.066;2022-11-15T05:00:53;8.70;99.90
40996;DHT22;26723;57.478;12.066;2022-11-15T05:04:20;8.70;99.90
40996;DHT22;26723;57.478;12.066;2022-11-15T05:07:47;8.70;99.90
40996;DHT22;26723;57.478;12.066;2022-11-15T05:11:15;8.70;99.90
40996;DHT22;26723;57.478;12.066;2022-11-15T05:14:42;8.70;99.90
40996;DHT22;26723;57.478;12.066;2022-11-15T05:18:08;8.70;99.90
40996;DHT22;26723;57.478;12.066;2022-11-15T05:21:36;8.70;99.90
40996;DHT22;26723;57.478;12.066;2022-11-15T05:25:04;8.70;99.90
40996;DHT22;26723;57.478;12.066;2022-11-15T05:28:32;8.70;99.90
40996;DHT22;26723;57.478;12.066;2022-11-15T05:32:00;8.70;99.90
40996;DHT22;26723;57.478;12.066;2022-11-15T05:35:30;8.70;99.90
40996;DHT22;26723;57.478;12.066;2022-11-15T05:38:58;8.70;99.90
40996;DHT22;26723;57.478;12.066;2022-11-15T05:42:27;8.70;99.90
40996;DHT22;26723;57.478;12.066;2022-11-15T05:45:57;8.70;99.90
40996;DHT22;26723;57.478;12.066;2022-11-15T05:49:26;8.70;99.90
40996;DHT22;26723;57.478;12.066;2022-11-15T05:52:54;8.70;99.90
40996;DHT22;26723;57.478;12.066;2022-11-15T05:56:29;8.70;99.90
40996;DHT22;26723;57.478;12.066;2022-11-15T05:59:56;8.70;99.90
40996;DHT22;26723;57.478;12.066;2022-11-15T06:03:25;8.70;99.90
40996;DHT22;26723;57.478;12.066;2022-11-15T06:06:51;8.70;99.90
40996;DHT22;26723;57.478;12.066;2022-11-15T06:10:19;8.70;99.90
40996;DHT22;26723;57.478;12.066;2022-11-15T06:13:46;8.70;99.90
40996;DHT22;26723;57.478;12.066;2022-11-15T06:17:13;8.70;99.90
40996;DHT22;26723;57.478;12.066;2022-11-15T06:20:41;8.70;99.90
40996;DHT22;26723;57.478;12.066;2022-11-15T06:24:08;8.70;99.90
40996;DHT22;26723;57.478;12.066;2022-11-15T06:27:35;8.70;99.90
40996;DHT22;26723;57.478;12.066;2022-11-15T06:31:06;8.70;99.90
40996;DHT22;26723;57.478;12.066;2022-11-15T06:34:33;8.70;99.90
40996;DHT22;26723;57.478;12.066;2022-11-15T06:38:07;8.70;99.90
40996;DHT22;26723;57.478;12.066;2022-11-15T06:41:35;8.70;99.90
40996;DHT22;26723;57.478;12.066;2022-11-15T06:45:02;8.70;99.90
40996;DHT22;26723;57.478;12.066;2022-11-15T06:48:29;8.70;99.90
40996;DHT22;26723;57.478;12.066;2022-11-15T06:51:56;8.70;99.90
40996;DHT22;26723;57.478;12.066;2022-11-15T06:55:25;8.70;99.90
40996;DHT22;26723;57.478;12.066;2022-11-15T06:58:51;8.70;99.90
40996;DHT22;26723;57.478;12.066;2022-11-15T07:02:18;8.70;99.90
40996;DHT22;26723;57.478;12.066;2022-11-15T07:05:51;8.70;99.90
40996;DHT22;26723;57.478;12.066;2022-11-15T07:09:19;8.70;99.90
40996;DHT22;26723;57.478;12.066;2022-11-15T07:12:48;8.70;99.90
40996;DHT22;26723;57.478;12.066;2022-11-15T07:16:15;8.80;99.90
40996;DHT22;26723;57.478;12.066;2022-11-15T07:19:42;8.80;99.90
40996;DHT22;26723;57.478;12.066;2022-11-15T07:23:09;8.80;99.90
40996;DHT22;26723;57.478;12.066;2022-11-15T07:26:36;8.80;99.90
40996;DHT22;26723;57.478;12.066;2022-11-15T07:30:05;8.80;99.90
40996;DHT22;26723;57.478;12.066;2022-11-15T07:33:33;8.80;99.90
40996;DHT22;26723;57.478;12.066;2022-11-15T07:37:00;8.90;99.90
40996;DHT22;26723;57.478;12.066;2022-11-15T07:40:28;8.90;99.90
40996;DHT22;26723;57.478;12.066;2022-11-15T07:43:55;8.90;99.90
40996;DHT22;26723;57.478;12.066;2022-11-15T07:47:24;8.90;99.90
40996;DHT22;26723;57.478;12.066;2022-11-15T07:50:51;8.90;99.90
40996;DHT22;26723;57.478;12.066;2022-11-15T07:54:17;8.90;99.90
40996;DHT22;26723;57.478;12.066;2022-11-15T07:57:44;8.90;99.90
40996;DHT22;26723;57.478;12.066;2022-11-15T08:01:10;9.00;99.90
40996;DHT22;26723;57.478;12.066;2022-11-15T08:04:40;9.00;99.90
40996;DHT22;26723;57.478;12.066;2022-11-15T08:08:08;9.00;99.90
40996;DHT22;26723;57.478;12.066;2022-11-15T08:11:35;9.00;99.90
40996;DHT22;26723;57.478;12.066;2022-11-15T08:15:01;9.00;99.90
40996;DHT22;26723;57.478;12.066;2022-11-15T08:18:28;9.00;99.90
40996;DHT22;26723;57.478;12.066;2022-11-15T08:21:56;9.00;99.90
40996;DHT22;26723;57.478;12.066;2022-11-15T08:25:23;8.90;99.90
40996;DHT22;26723;57.478;12.066;2022-11-15T08:28:52;9.00;99.90
40996;DHT22;26723;57.478;12.066;2022-11-15T08:32:19;8.90;99.90
40996;DHT22;26723;57.478;12.066;2022-11-15T08:35:45;8.90;99.90
40996;DHT22;26723;57.478;12.066;2022-11-15T08:39:14;8.90;99.90
40996;DHT22;26723;57.478;12.066;2022-11-15T08:42:41;8.90;99.90
40996;DHT22;26723;57.478;12.066;2022-11-15T08:46:09;8.90;99.90
40996;DHT22;26723;57.478;12.066;2022-11-15T08:49:37;9.00;99.90
40996;DHT22;26723;57.478;12.066;2022-11-15T08:53:05;9.00;99.90
40996;DHT22;26723;57.478;12.066;2022-11-15T08:56:33;9.00;99.90
40996;DHT22;26723;57.478;12.066;2022-11-15T09:00:00;9.00;99.90
40996;DHT22;26723;57.478;12.066;2022-11-15T09:03:27;9.00;99.90
40996;DHT22;26723;57.478;12.066;2022-11-15T09:06:55;9.00;99.90
40996;DHT22;26723;57.478;12.066;2022-11-15T09:10:22;9.00;99.90
40996;DHT22;26723;57.478;12.066;2022-11-15T09:13:51;9.10;99.90
40996;DHT22;26723;57.478;12.066;2022-11-15T09:17:18;9.10;99.90
40996;DHT22;26723;57.478;12.066;2022-11-15T09:20:49;9.10;99.90
40996;DHT22;26723;57.478;12.066;2022-11-15T09:24:16;9.20;99.90
40996;DHT22;26723;57.478;12.066;2022-11-15T09:27:42;9.10;99.90
40996;DHT22;26723;57.478;12.066;2022-11-15T09:31:10;9.20;99.90
40996;DHT22;26723;57.478;12.066;2022-11-15T09:34:43;9.20;99.90
40996;DHT22;26723;57.478;12.066;2022-11-15T09:38:10;9.20;99.90
40996;DHT22;26723;57.478;12.066;2022-11-15T09:42:17;9.30;99.90
40996;DHT22;26723;57.478;12.066;2022-11-15T09:45:55;9.30;99.90
40996;DHT22;26723;57.478;12.066;2022-11-15T09:49:29;9.30;99.90
40996;DHT22;26723;57.478;12.066;2022-11-15T09:52:49;9.30;99.90
40996;DHT22;26723;57.478;12.066;2022-11-15T09:56:00;9.40;99.90
40996;DHT22;26723;57.478;12.066;2022-11-15T09:59:21;9.30;99.90
40996;DHT22;26723;57.478;12.066;2022-11-15T10:02:40;9.40;99.90
40996;DHT22;26723;57.478;12.066;2022-11-15T10:05:55;9.40;99.90
40996;DHT22;26723;57.478;12.066;2022-11-15T10:09:09;9.40;99.90
40996;DHT22;26723;57.478;12.066;2022-11-15T10:12:21;9.40;99.90
40996;DHT22;26723;57.478;12.066;2022-11-15T10:15:30;9.40;99.90
40996;DHT22;26723;57.478;12.066;2022-11-15T10:18:51;9.40;99.90
40996;DHT22;26723;57.478;12.066;2022-11-15T10:22:16;9.50;99.90
40996;DHT22;26723;57.478;12.066;2022-11-15T10:25:28;9.50;99.90
40996;DHT22;26723;57.478;12.066;2022-11-15T10:28:37;9.50;99.90
40996;DHT22;26723;57.478;12.066;2022-11-15T10:31:45;9.50;99.90
40996;DHT22;26723;57.478;12.066;2022-11-15T10:34:53;9.40;99.90
40996;DHT22;26723;57.478;12.066;2022-11-15T10:38:08;9.50;99.90
40996;DHT22;26723;57.478;12.066;2022-11-15T10:41:18;9.50;99.90
40996;DHT22;26723;57.478;12.066;2022-11-15T10:44:29;9.50;99.90
40996;DHT22;26723;57.478;12.066;2022-11-15T10:47:37;9.50;99.90
40996;DHT22;26723;57.478;12.066;2022-11-15T10:50:47;9.50;99.90
40996;DHT22;26723;57.478;12.066;2022-11-15T10:53:59;9.50;99.90
40996;DHT22;26723;57.478;12.066;2022-11-15T10:57:12;9.50;99.90
40996;DHT22;26723;57.478;12.066;2022-11-15T11:00:36;9.50;99.90
40996;DHT22;26723;57.478;12.066;2022-11-15T11:03:58;9.50;99.90
40996;DHT22;26723;57.478;12.066;2022-11-15T11:07:20;9.60;99.90
40996;DHT22;26723;57.478;12.066;2022-11-15T11:10:30;9.60;99.90
40996;DHT22;26723;57.478;12.066;2022-11-15T11:14:11;9.60;99.90
40996;DHT22;26723;57.478;12.066;2022-11-15T11:17:25;9.60;99.90
40996;DHT22;26723;57.478;12.066;2022-11-15T11:20:41;9.60;99.90
40996;DHT22;26723;57.478;12.066;2022-11-15T11:23:56;9.60;99.90
40996;DHT22;26723;57.478;12.066;2022-11-15T11:27:22;9.60;99.90
40996;DHT22;26723;57.478;12.066;2022-11-15T11:30:44;9.60;99.90
40996;DHT22;26723;57.478;12.066;2022-11-15T11:34:02;9.60;99.90
40996;DHT22;26723;57.478;12.066;2022-11-15T11:37:17;9.60;99.90
40996;DHT22;26723;57.478;12.066;2022-11-15T11:40:30;9.60;99.90
40996;DHT22;26723;57.478;12.066;2022-11-15T11:43:51;9.60;99.90
40996;DHT22;26723;57.478;12.066;2022-11-15T11:47:09;9.60;99.90
40996;DHT22;26723;57.478;12.066;2022-11-15T11:50:19;9.60;99.90
40996;DHT22;26723;57.478;12.066;2022-11-15T11:53:31;9.50;99.90
40996;DHT22;26723;57.478;12.066;2022-11-15T11:56:44;9.50;99.90
40996;DHT22;26723;57.478;12.066;2022-11-15T11:59:58;9.50;99.90
40996;DHT22;26723;57.478;12.066;2022-11-15T12:03:24;9.50;99.90
40996;DHT22;26723;57.478;12.066;2022-11-15T12:06:37;9.60;99.90
40996;DHT22;26723;57.478;12.066;2022-11-15T12:09:53;9.60;99.90
40996;DHT22;26723;57.478;12.066;2022-11-15T12:13:08;9.60;99.90
40996;DHT22;26723;57.478;12.066;2022-11-15T12:16:21;9.70;99.90
40996;DHT22;26723;57.478;12.066;2022-11-15T12:19:30;9.70;99.90
40996;DHT22;26723;57.478;12.066;2022-11-15T12:22:41;9.70;99.90
40996;DHT22;26723;57.478;12.066;2022-11-15T12:25:55;9.70;99.90
40996;DHT22;26723;57.478;12.066;2022-11-15T12:29:10;9.70;99.90
40996;DHT22;26723;57.478;12.066;2022-11-15T12:32:29;9.70;99.90
40996;DHT22;26723;57.478;12.066;2022-11-15T12:35:40;9.70;99.90
40996;DHT22;26723;57.478;12.066;2022-11-15T12:38:53;9.70;99.90
40996;DHT22;26723;57.478;12.066;2022-11-15T12:42:38;9.70;99.90
40996;DHT22;26723;57.478;12.066;2022-11-15T12:45:47;9.70;99.90
40996;DHT22;26723;57.478;12.066;2022-11-15T12:48:58;9.80;99.90
40996;DHT22;26723;57.478;12.066;2022-11-15T12:52:08;9.80;99.90
40996;DHT22;26723;57.478;12.066;2022-11-15T12:55:31;9.80;99.90
40996;DHT22;26723;57.478;12.066;2022-11-15T12:58:42;9.80;99.90
40996;DHT22;26723;57.478;12.066;2022-11-15T13:01:59;9.80;99.90
40996;DHT22;26723;57.478;12.066;2022-11-15T13:09:54;9.80;99.90
40996;DHT22;26723;57.478;12.066;2022-11-15T13:13:04;9.80;99.90
40996;DHT22;26723;57.478;12.066;2022-11-15T13:16:18;9.80;99.90
40996;DHT22;26723;57.478;12.066;2022-11-15T13:19:29;9.80;99.90
40996;DHT22;26723;57.478;12.066;2022-11-15T13:22:43;9.80;99.90
40996;DHT22;26723;57.478;12.066;2022-11-15T13:26:12;9.80;99.90
40996;DHT22;26723;57.478;12.066;2022-11-15T13:29:20;9.80;99.90
40996;DHT22;26723;57.478;12.066;2022-11-15T13:32:29;9.80;99.90
40996;DHT22;26723;57.478;12.066;2022-11-15T13:35:40;9.80;99.90
40996;DHT22;26723;57.478;12.066;2022-11-15T13:38:58;9.80;99.90
40996;DHT22;26723;57.478;12.066;2022-11-15T13:42:14;9.80;99.90
40996;DHT22;26723;57.478;12.066;2022-11-15T13:45:24;9.80;99.90
40996;DHT22;26723;57.478;12.066;2022-11-15T13:48:33;9.80;99.90
40996;DHT22;26723;57.478;12.066;2022-11-15T13:51:44;9.80;99.90
40996;DHT22;26723;57.478;12.066;2022-11-15T13:54:58;9.80;99.90
40996;DHT22;26723;57.478;12.066;2022-11-15T13:58:09;9.80;99.90
40996;DHT22;26723;57.478;12.066;2022-11-15T14:01:21;9.80;99.90
40996;DHT22;26723;57.478;12.066;2022-11-15T14:04:31;9.80;99.90
40996;DHT22;26723;57.478;12.066;2022-11-15T14:07:52;9.80;99.90
40996;DHT22;26723;57.478;12.066;2022-11-15T14:11:13;9.80;99.90
40996;DHT22;26723;57.478;12.066;2022-11-15T14:14:23;9.70;99.90
40996;DHT22;26723;57.478;12.066;2022-11-15T14:17:37;9.70;99.90
40996;DHT22;26723;57.478;12.066;2022-11-15T14:21:06;9.60;99.90
40996;DHT22;26723;57.478;12.066;2022-11-15T14:24:15;9.60;99.90
40996;DHT22;26723;57.478;12.066;2022-11-15T14:27:26;9.30;99.90
40996;DHT22;26723;57.478;12.066;2022-11-15T14:30:36;9.00;99.90
40996;DHT22;26723;57.478;12.066;2022-11-15T14:33:44;9.00;99.90
40996;DHT22;26723;57.478;12.066;2022-11-15T14:36:53;8.90;99.90
40996;DHT22;26723;57.478;12.066;2022-11-15T14:40:02;8.90;99.90
40996;DHT22;26723;57.478;12.066;2022-11-15T14:43:12;8.90;99.90
40996;DHT22;26723;57.478;12.066;2022-11-15T14:46:21;8.80;99.90
40996;DHT22;26723;57.478;12.066;2022-11-15T14:49:29;8.70;99.90
40996;DHT22;26723;57.478;12.066;2022-11-15T14:52:38;8.70;99.90
40996;DHT22;26723;57.478;12.066;2022-11-15T14:55:46;8.70;99.90
40996;DHT22;26723;57.478;12.066;2022-11-15T14:58:56;8.70;99.90
40996;DHT22;26723;57.478;12.066;2022-11-15T15:02:12;8.70;99.90
40996;DHT22;26723;57.478;12.066;2022-11-15T15:05:24;8.70;99.90
40996;DHT22;26723;57.478;12.066;2022-11-15T15:08:32;8.70;99.90
40996;DHT22;26723;57.478;12.066;2022-11-15T15:11:41;8.70;99.90
40996;DHT22;26723;57.478;12.066;2022-11-15T15:14:51;8.80;99.90
40996;DHT22;26723;57.478;12.066;2022-11-15T15:17:59;8.80;99.90
40996;DHT22;26723;57.478;12.066;2022-11-15T15:21:17;8.80;99.90
40996;DHT22;26723;57.478;12.066;2022-11-15T15:24:27;8.80;99.90
40996;DHT22;26723;57.478;12.066;2022-11-15T15:27:35;8.70;99.90
40996;DHT22;26723;57.478;12.066;2022-11-15T15:30:45;8.70;99.90
40996;DHT22;26723;57.478;12.066;2022-11-15T15:33:53;8.70;99.90
40996;DHT22;26723;57.478;12.066;2022-11-15T15:37:21;8.60;99.90
40996;DHT22;26723;57.478;12.066;2022-11-15T15:40:32;8.60;99.90
40996;DHT22;26723;57.478;12.066;2022-11-15T15:43:41;8.60;99.90
40996;DHT22;26723;57.478;12.066;2022-11-15T15:46:51;8.60;99.90
40996;DHT22;26723;57.478;12.066;2022-11-15T15:49:59;8.60;99.90
40996;DHT22;26723;57.478;12.066;2022-11-15T15:53:08;8.60;99.90
40996;DHT22;26723;57.478;12.066;2022-11-15T15:56:17;8.60;99.90
40996;DHT22;26723;57.478;12.066;2022-11-15T15:59:25;8.60;99.90
40996;DHT22;26723;57.478;12.066;2022-11-15T16:02:35;8.60;99.90
40996;DHT22;26723;57.478;12.066;2022-11-15T16:05:47;8.60;99.90
40996;DHT22;26723;57.478;12.066;2022-11-15T16:08:55;8.50;99.90
40996;DHT22;26723;57.478;12.066;2022-11-15T16:12:21;8.50;99.90
40996;DHT22;26723;57.478;12.066;2022-11-15T16:15:31;8.50;99.90
40996;DHT22;26723;57.478;12.066;2022-11-15T16:18:41;8.50;99.90
40996;DHT22;26723;57.478;12.066;2022-11-15T16:21:50;8.50;99.90
40996;DHT22;26723;57.478;12.066;2022-11-15T16:24:58;8.50;99.90
40996;DHT22;26723;57.478;12.066;2022-11-15T16:28:15;8.50;99.90
40996;DHT22;26723;57.478;12.066;2022-11-15T16:31:24;8.50;99.90
40996;DHT22;26723;57.478;12.066;2022-11-15T16:34:34;8.50;99.90
40996;DHT22;26723;57.478;12.066;2022-11-15T16:37:48;8.40;99.90
40996;DHT22;26723;57.478;12.066;2022-11-15T16:40:57;8.40;99.90
40996;DHT22;26723;57.478;12.066;2022-11-15T16:44:05;8.40;99.90
40996;DHT22;26723;57.478;12.066;2022-11-15T16:47:16;8.40;99.90
40996;DHT22;26723;57.478;12.066;2022-11-15T16:50:28;8.30;99.90
40996;DHT22;26723;57.478;12.066;2022-11-15T16:53:36;8.30;99.90
40996;DHT22;26723;57.478;12.066;2022-11-15T16:56:45;8.30;99.90
40996;DHT22;26723;57.478;12.066;2022-11-15T16:59:54;8.20;99.90
40996;DHT22;26723;57.478;12.066;2022-11-15T17:03:02;8.20;99.90
40996;DHT22;26723;57.478;12.066;2022-11-15T17:06:13;8.20;99.90
40996;DHT22;26723;57.478;12.066;2022-11-15T17:09:24;8.10;99.90
40996;DHT22;26723;57.478;12.066;2022-11-15T17:12:32;8.10;99.90
40996;DHT22;26723;57.478;12.066;2022-11-15T17:15:41;8.00;99.90
40996;DHT22;26723;57.478;12.066;2022-11-15T17:18:50;8.00;99.90
40996;DHT22;26723;57.478;12.066;2022-11-15T17:22:00;8.00;99.90
40996;DHT22;26723;57.478;12.066;2022-11-15T17:25:09;8.00;99.90
40996;DHT22;26723;57.478;12.066;2022-11-15T17:28:18;7.90;99.90
40996;DHT22;26723;57.478;12.066;2022-11-15T17:31:26;7.90;99.90
40996;DHT22;26723;57.478;12.066;2022-11-15T17:34:36;7.80;99.90
40996;DHT22;26723;57.478;12.066;2022-11-15T17:37:46;7.80;99.90
40996;DHT22;26723;57.478;12.066;2022-11-15T17:41:01;7.80;99.90
40996;DHT22;26723;57.478;12.066;2022-11-15T17:44:10;7.70;99.90
40996;DHT22;26723;57.478;12.066;2022-11-15T17:47:18;7.70;99.90
40996;DHT22;26723;57.478;12.066;2022-11-15T17:50:27;7.70;99.90
40996;DHT22;26723;57.478;12.066;2022-11-15T17:53:39;7.70;99.90
40996;DHT22;26723;57.478;12.066;2022-11-15T17:56:47;7.70;99.90
40996;DHT22;26723;57.478;12.066;2022-11-15T17:59:56;7.70;99.90
40996;DHT22;26723;57.478;12.066;2022-11-15T18:03:05;7.70;99.90
40996;DHT22;26723;57.478;12.066;2022-11-15T18:06:16;7.60;99.90
40996;DHT22;26723;57.478;12.066;2022-11-15T18:09:26;7.60;99.90
40996;DHT22;26723;57.478;12.066;2022-11-15T18:12:35;7.60;99.90
40996;DHT22;26723;57.478;12.066;2022-11-15T18:15:52;7.60;99.90
40996;DHT22;26723;57.478;12.066;2022-11-15T18:19:01;7.50;99.90
40996;DHT22;26723;57.478;12.066;2022-11-15T18:22:14;7.60;99.90
40996;DHT22;26723;57.478;12.066;2022-11-15T18:25:26;7.50;99.90
40996;DHT22;26723;57.478;12.066;2022-11-15T18:28:36;7.50;99.90
40996;DHT22;26723;57.478;12.066;2022-11-15T18:31:45;7.50;99.90
40996;DHT22;26723;57.478;12.066;2022-11-15T18:34:56;7.40;99.90
40996;DHT22;26723;57.478;12.066;2022-11-15T18:38:04;7.40;99.90
40996;DHT22;26723;57.478;12.066;2022-11-15T18:41:16;7.40;99.90
40996;DHT22;26723;57.478;12.066;2022-11-15T18:44:27;7.40;99.90
40996;DHT22;26723;57.478;12.066;2022-11-15T18:47:36;7.40;99.90
40996;DHT22;26723;57.478;12.066;2022-11-15T18:50:46;7.40;99.90
40996;DHT22;26723;57.478;12.066;2022-11-15T18:54:00;7.40;99.90
40996;DHT22;26723;57.478;12.066;2022-11-15T18:57:10;7.40;99.90
40996;DHT22;26723;57.478;12.066;2022-11-15T19:00:18;7.40;99.90
40996;DHT22;26723;57.478;12.066;2022-11-15T19:03:30;7.40;99.90
40996;DHT22;26723;57.478;12.066;2022-11-15T19:06:41;7.40;99.90
40996;DHT22;26723;57.478;12.066;2022-11-15T19:09:50;7.40;99.90
40996;DHT22;26723;57.478;12.066;2022-11-15T19:13:00;7.40;99.90
40996;DHT22;26723;57.478;12.066;2022-11-15T19:16:10;7.40;99.90
40996;DHT22;26723;57.478;12.066;2022-11-15T19:19:20;7.40;99.90
40996;DHT22;26723;57.478;12.066;2022-11-15T19:22:29;7.40;99.90
40996;DHT22;26723;57.478;12.066;2022-11-15T19:25:37;7.40;99.90
40996;DHT22;26723;57.478;12.066;2022-11-15T19:28:50;7.40;99.90
40996;DHT22;26723;57.478;12.066;2022-11-15T19:31:58;7.40;99.90
40996;DHT22;26723;57.478;12.066;2022-11-15T19:35:07;7.40;99.90
40996;DHT22;26723;57.478;12.066;2022-11-15T19:38:15;7.40;99.90
40996;DHT22;26723;57.478;12.066;2022-11-15T19:41:25;7.40;99.90
40996;DHT22;26723;57.478;12.066;2022-11-15T19:44:34;7.40;99.90
40996;DHT22;26723;57.478;12.066;2022-11-15T19:47:43;7.40;99.90
40996;DHT22;26723;57.478;12.066;2022-11-15T19:50:52;7.40;99.90
40996;DHT22;26723;57.478;12.066;2022-11-15T19:54:01;7.40;99.90
40996;DHT22;26723;57.478;12.066;2022-11-15T19:57:12;7.50;99.90
40996;DHT22;26723;57.478;12.066;2022-11-15T20:00:22;7.50;99.90
40996;DHT22;26723;57.478;12.066;2022-11-15T20:03:32;7.50;99.90
40996;DHT22;26723;57.478;12.066;2022-11-15T20:06:42;7.50;99.90
40996;DHT22;26723;57.478;12.066;2022-11-15T20:09:50;7.50;99.90
40996;DHT22;26723;57.478;12.066;2022-11-15T20:12:59;7.50;99.90
40996;DHT22;26723;57.478;12.066;2022-11-15T20:16:14;7.50;99.90
40996;DHT22;26723;57.478;12.066;2022-11-15T20:19:23;7.50;99.90
40996;DHT22;26723;57.478;12.066;2022-11-15T20:22:31;7.50;99.90
40996;DHT22;26723;57.478;12.066;2022-11-15T20:25:42;7.50;99.90
40996;DHT22;26723;57.478;12.066;2022-11-15T20:28:51;7.40;99.90
40996;DHT22;26723;57.478;12.066;2022-11-15T20:32:00;7.40;99.90
40996;DHT22;26723;57.478;12.066;2022-11-15T20:35:09;7.40;99.90
40996;DHT22;26723;57.478;12.066;2022-11-15T20:38:17;7.40;99.90
40996;DHT22;26723;57.478;12.066;2022-11-15T20:41:26;7.40;99.90
40996;DHT22;26723;57.478;12.066;2022-11-15T20:44:35;7.30;99.90
40996;DHT22;26723;57.478;12.066;2022-11-15T20:47:45;7.30;99.90
40996;DHT22;26723;57.478;12.066;2022-11-15T20:51:02;7.30;99.90
40996;DHT22;26723;57.478;12.066;2022-11-15T20:54:11;7.20;99.90
40996;DHT22;26723;57.478;12.066;2022-11-15T20:57:19;7.20;99.90
40996;DHT22;26723;57.478;12.066;2022-11-15T21:00:28;7.20;99.90
40996;DHT22;26723;57.478;12.066;2022-11-15T21:03:37;7.20;99.90
40996;DHT22;26723;57.478;12.066;2022-11-15T21:06:46;7.20;99.90